Time;durP1;ratioP1;P1;durP2;ratioP2;P2;SDS_P1;SDS_P2;PMS_P1;PMS_P2;Temp;Humidity;BMP_temperature;BMP_pressure;BME280_temperature;BME280_humidity;BME280_pressure;Samples;Min_cycle;Max_cycle;Signal;HPM_P1;HPM_P2
2022/09/07 00:01:30;;;;;;;2.65;2.40;;;;;;;25.09;46.22;95414.41;5007439;28;20514;-70
2022/09/07 00:03:56;;;;;;;4.50;2.63;;;;;;;25.03;46.09;95405.50;5005831;28;20030;-70
2022/09/07 00:06:21;;;;;;;5.28;2.90;;;;;;;24.81;46.48;95390.53;5022083;28;20505;-69
2022/09/07 00:08:47;;;;;;;4.80;2.95;;;;;;;24.56;45.94;95337.13;5009769;28;20121;-68
2022/09/07 00:11:14;;;;;;;4.85;2.95;;;;;;;25.00;46.24;95414.72;5009571;28;20057;-70
2022/09/07 00:13:40;;;;;;;4.15;2.92;;;;;;;24.92;46.21;95397.38;5005571;28;20050;-67
2022/09/07 00:16:08;;;;;;;4.40;2.85;;;;;;;24.99;46.23;95413.25;4985764;28;20026;-69
2022/09/07 00:18:33;;;;;;;3.85;3.05;;;;;;;24.98;46.10;95411.00;5005887;28;20041;-63
2022/09/07 00:21:09;;;;;;;4.38;2.83;;;;;;;24.58;46.18;95354.47;5007517;28;20045;-68
2022/09/07 00:23:35;;;;;;;5.10;3.03;;;;;;;24.54;46.14;95345.81;4989665;28;20144;-65
2022/09/07 00:26:03;;;;;;;5.10;3.03;;;;;;;25.01;46.34;95412.75;5012503;28;20049;-70
2022/09/07 00:28:29;;;;;;;4.00;2.72;;;;;;;24.95;46.02;95406.56;5004861;28;20037;-70
2022/09/07 00:30:54;;;;;;;4.82;3.20;;;;;;;24.97;46.04;95412.25;4988827;28;20429;-65
2022/09/07 00:33:20;;;;;;;4.03;2.75;;;;;;;24.53;46.30;95362.72;5008075;28;20070;-70
2022/09/07 00:35:45;;;;;;;4.22;3.20;;;;;;;24.37;46.18;95326.09;5005234;28;20133;-65
2022/09/07 00:38:11;;;;;;;3.17;2.60;;;;;;;24.97;46.40;95410.25;5004802;28;20042;-70
2022/09/07 00:40:36;;;;;;;5.38;2.90;;;;;;;24.49;46.54;95345.84;5010693;28;20576;-66
2022/09/07 00:43:02;;;;;;;4.60;2.78;;;;;;;24.44;46.36;95349.38;5012870;28;20068;-69
2022/09/07 00:45:28;;;;;;;4.05;3.10;;;;;;;24.59;46.46;95371.59;5004536;28;20050;-70
2022/09/07 00:48:05;;;;;;;3.50;3.10;;;;;;;24.92;46.26;95413.78;5004225;28;20034;-70
2022/09/07 00:50:40;;;;;;;4.75;3.20;;;;;;;24.35;46.38;95338.78;5004445;28;20060;-69
2022/09/07 00:53:41;;;;;;;5.38;3.33;;;;;;;24.24;46.06;95322.44;4971458;28;20593;-70
2022/09/07 00:56:06;;;;;;;5.20;3.38;;;;;;;24.15;46.15;95309.09;4993718;28;20541;-62
2022/09/07 00:58:32;;;;;;;4.85;3.30;;;;;;;24.90;46.52;95421.00;5003808;28;20084;-62
2022/09/07 01:00:57;;;;;;;4.00;3.20;;;;;;;24.86;46.22;95415.81;4986911;28;20033;-67
2022/09/07 01:03:28;;;;;;;4.20;3.30;;;;;;;24.69;46.93;95405.53;5008602;28;20073;-64
2022/09/07 01:06:06;;;;;;;4.93;3.58;;;;;;;24.87;46.64;95417.31;5009173;28;20042;-70
2022/09/07 01:08:31;;;;;;;5.43;3.42;;;;;;;24.93;46.13;95414.50;4965879;28;20034;-67
2022/09/07 01:10:57;;;;;;;4.47;3.15;;;;;;;24.53;46.09;95357.25;4981362;28;20026;-66
2022/09/07 01:13:23;;;;;;;4.82;3.28;;;;;;;24.51;46.29;95346.09;5004014;28;20037;-66
2022/09/07 01:16:06;;;;;;;4.47;3.20;;;;;;;24.89;46.50;95403.88;5004215;28;20025;-65
2022/09/07 01:18:52;;;;;;;4.47;3.60;;;;;;;24.88;46.24;95413.31;4972355;28;20049;-62
2022/09/07 01:21:36;;;;;;;3.45;3.03;;;;;;;24.88;46.15;95418.03;4988938;28;20048;-64
2022/09/07 01:24:17;;;;;;;6.50;3.35;;;;;;;24.83;46.45;95414.09;5003416;28;20430;-67
2022/09/07 01:27:20;;;;;;;3.95;3.03;;;;;;;24.85;45.98;95403.41;5007797;28;20338;-64
2022/09/07 01:30:03;;;;;;;5.35;3.70;;;;;;;24.83;46.20;95394.97;4983255;28;20515;-67
2022/09/07 01:32:42;;;;;;;4.45;3.30;;;;;;;24.78;46.31;95397.75;4990598;28;20144;-64
2022/09/07 01:35:14;;;;;;;4.20;3.28;;;;;;;24.83;46.66;95422.28;4962873;28;20054;-64
2022/09/07 01:37:50;;;;;;;4.38;3.20;;;;;;;24.79;46.22;95399.22;4967049;28;20100;-61
2022/09/07 01:40:20;;;;;;;5.43;3.40;;;;;;;24.43;46.37;95339.69;4959796;28;20023;-64
2022/09/07 01:42:50;;;;;;;4.47;3.05;;;;;;;24.81;46.26;95406.91;4981775;28;20030;-65
2022/09/07 01:45:16;;;;;;;6.30;3.50;;;;;;;24.79;46.24;95403.97;4948320;28;20047;-67
2022/09/07 01:47:45;;;;;;;5.30;3.63;;;;;;;24.76;46.21;95402.25;4958560;28;20034;-70
2022/09/07 01:50:29;;;;;;;4.07;3.03;;;;;;;24.60;46.20;95392.19;4966352;28;20596;-63
2022/09/07 01:53:08;;;;;;;3.80;3.10;;;;;;;24.30;46.12;95336.78;4956658;28;20118;-68
2022/09/07 01:55:43;;;;;;;6.07;3.33;;;;;;;24.59;46.34;95390.72;4952335;28;20049;-64
2022/09/07 01:58:12;;;;;;;4.22;3.20;;;;;;;23.94;46.12;95288.91;4962821;28;20038;-69
2022/09/07 02:00:39;;;;;;;4.32;3.00;;;;;;;24.72;46.31;95404.50;4966701;28;20119;-62
2022/09/07 02:03:09;;;;;;;4.57;2.83;;;;;;;24.42;46.16;95357.31;4961395;28;20046;-66
2022/09/07 02:05:35;;;;;;;;;;;;;;;24.74;45.91;95402.00;4953304;28;20050;-63
2022/09/07 02:08:07;;;;;;;4.15;3.20;;;;;;;24.69;46.20;95394.59;4965134;28;19934;-63
2022/09/07 02:10:49;;;;;;;4.43;3.35;;;;;;;24.74;46.11;95402.00;4973911;28;20042;-66
2022/09/07 02:13:14;;;;;;;4.00;3.33;;;;;;;24.74;45.76;95396.53;4960322;28;20034;-65
2022/09/07 02:15:47;;;;;;;5.00;3.33;;;;;;;24.27;45.90;95335.06;4975016;28;20045;-65
2022/09/07 02:18:13;;;;;;;4.32;3.47;;;;;;;24.67;46.15;95391.66;4983264;28;20042;-68
2022/09/07 02:20:39;;;;;;;5.38;3.10;;;;;;;24.06;46.00;95306.69;4983010;28;20050;-64
2022/09/07 02:23:08;;;;;;;5.68;3.28;;;;;;;24.12;45.81;95315.56;4995884;28;20066;-63
2022/09/07 02:25:50;;;;;;;4.70;3.42;;;;;;;23.96;45.65;95286.44;4942205;28;20038;-66
2022/09/07 02:28:19;;;;;;;4.28;2.90;;;;;;;24.11;45.79;95318.81;4954689;28;20347;-62
2022/09/07 02:30:44;;;;;;;5.20;3.47;;;;;;;24.47;46.05;95372.94;4970716;28;20129;-64
2022/09/07 02:33:10;;;;;;;5.65;3.75;;;;;;;24.65;45.94;95394.13;4981768;28;20042;-62
2022/09/07 02:35:35;;;;;;;5.32;3.40;;;;;;;24.28;46.21;95333.09;4985694;28;20212;-65
2022/09/07 02:38:02;;;;;;;4.90;3.17;;;;;;;24.64;46.10;95381.75;4998541;28;20442;-65
2022/09/07 02:40:28;;;;;;;4.22;3.35;;;;;;;24.64;45.96;95392.66;4965295;28;20189;-69
2022/09/07 02:42:53;;;;;;;5.45;3.55;;;;;;;24.41;45.68;95347.66;4975965;28;20030;-65
2022/09/07 02:45:19;;;;;;;5.28;3.40;;;;;;;24.62;45.83;95384.97;4952694;28;20042;-68
2022/09/07 02:47:50;;;;;;;5.53;3.78;;;;;;;24.62;46.16;95389.69;4963302;28;20065;-64
2022/09/07 02:50:46;;;;;;;5.63;3.38;;;;;;;23.69;45.94;95258.56;4991552;28;20057;-63
2022/09/07 02:53:37;;;;;;;5.30;3.83;;;;;;;24.52;45.69;95380.34;4970061;28;20042;-67
2022/09/07 02:56:24;;;;;;;4.25;3.10;;;;;;;24.60;45.59;95397.66;4973036;28;20507;-62
2022/09/07 02:58:49;;;;;;;4.22;3.33;;;;;;;24.59;46.04;95396.19;4980182;28;20201;-62
2022/09/07 03:01:28;;;;;;;5.72;3.60;;;;;;;24.58;45.77;95400.16;4994383;28;20418;-69
2022/09/07 03:04:22;;;;;;;4.50;3.25;;;;;;;24.61;45.87;95404.59;4968132;28;20042;-69
2022/09/07 03:06:54;;;;;;;4.18;3.30;;;;;;;24.28;45.68;95350.19;4957167;28;20526;-64
2022/09/07 03:09:22;;;;;;;5.72;3.65;;;;;;;24.57;45.76;95393.19;4963413;28;20085;-63
2022/09/07 03:11:47;;;;;;;3.92;3.15;;;;;;;24.54;45.71;95394.97;4958274;28;20041;-65
2022/09/07 03:14:18;;;;;;;3.80;3.00;;;;;;;24.19;45.72;95342.31;4959603;28;20026;-61
2022/09/07 03:16:43;;;;;;;5.00;2.95;;;;;;;24.02;45.63;95325.31;4992394;28;20039;-62
2022/09/07 03:19:09;;;;;;;4.65;2.88;;;;;;;24.49;45.77;95392.28;4986205;28;21165;-64
2022/09/07 03:21:35;;;;;;;3.63;3.17;;;;;;;24.04;45.43;95325.56;4968584;28;20585;-63
2022/09/07 03:24:01;;;;;;;4.05;3.08;;;;;;;24.53;45.51;95395.47;4985646;28;20117;-61
2022/09/07 03:26:26;;;;;;;3.97;2.90;;;;;;;24.51;45.33;95397.97;4985159;28;20038;-63
2022/09/07 03:28:52;;;;;;;3.38;2.65;;;;;;;23.86;45.17;95298.88;4983548;28;20058;-62
2022/09/07 03:31:18;;;;;;;4.13;2.60;;;;;;;24.50;45.66;95399.22;4966075;28;20034;-65
2022/09/07 03:33:43;;;;;;;3.95;2.80;;;;;;;24.05;45.76;95332.50;4986279;28;20573;-64
2022/09/07 03:36:09;;;;;;;4.22;2.90;;;;;;;24.15;45.72;95358.22;5000067;28;20573;-68
2022/09/07 03:38:34;;;;;;;3.90;3.20;;;;;;;24.47;45.22;95406.44;5005049;28;20463;-67
2022/09/07 03:41:01;;;;;;;4.53;2.85;;;;;;;24.46;45.59;95409.66;5002739;28;20089;-68
2022/09/07 03:43:27;;;;;;;3.78;2.92;;;;;;;24.50;45.42;95410.16;4990255;28;20022;-70
2022/09/07 03:46:03;;;;;;;4.68;2.95;;;;;;;24.28;45.70;95382.97;4993740;28;20065;-67
2022/09/07 03:48:29;;;;;;;4.55;3.13;;;;;;;24.16;45.34;95362.44;4987479;28;20124;-67
2022/09/07 03:51:06;;;;;;;3.33;2.63;;;;;;;24.33;45.15;95389.66;5005571;28;20747;-69
2022/09/07 03:53:32;;;;;;;3.00;2.60;;;;;;;24.27;45.34;95392.38;4990356;28;20050;-63
2022/09/07 03:55:59;;;;;;;4.13;3.10;;;;;;;23.85;45.18;95329.38;4987527;28;20322;-67
2022/09/07 03:58:24;;;;;;;3.80;3.00;;;;;;;24.14;45.69;95367.66;5005115;28;20029;-68
2022/09/07 04:00:50;;;;;;;4.57;3.03;;;;;;;24.15;45.76;95369.13;5017490;28;20053;-69
2022/09/07 04:03:15;;;;;;;4.55;3.20;;;;;;;23.92;45.01;95340.50;4992357;28;20153;-65
2022/09/07 04:05:41;;;;;;;4.65;2.90;;;;;;;24.19;45.06;95396.16;5018276;28;20055;-67
2022/09/07 04:08:06;;;;;;;3.55;2.90;;;;;;;24.30;45.09;95396.81;4998968;28;20190;-70
2022/09/07 04:10:37;;;;;;;4.30;2.80;;;;;;;24.15;45.49;95366.41;5014433;28;20045;-70
2022/09/07 04:13:03;;;;;;;6.72;2.80;;;;;;;24.38;45.56;95411.47;5015684;28;20129;-63
2022/09/07 04:15:28;;;;;;;4.00;2.83;;;;;;;23.82;45.52;95335.84;4988258;28;20046;-69
2022/09/07 04:17:54;;;;;;;4.20;2.85;;;;;;;24.32;45.15;95409.97;5000038;28;20104;-69
2022/09/07 04:20:19;;;;;;;3.80;2.60;;;;;;;23.82;44.99;95335.13;4998455;28;20069;-68
2022/09/07 04:22:47;;;;;;;5.50;2.80;;;;;;;24.33;45.25;95419.69;4997421;28;20030;-69
2022/09/07 04:25:12;;;;;;;3.17;2.72;;;;;;;24.07;44.81;95373.66;5001759;28;20022;-64
2022/09/07 04:27:38;;;;;;;3.55;2.90;;;;;;;24.25;45.07;95403.06;4996334;28;20037;-70
2022/09/07 04:30:04;;;;;;;3.03;2.55;;;;;;;23.52;45.28;95296.06;5004593;28;20561;-67
2022/09/07 04:32:29;;;;;;;5.40;3.08;;;;;;;23.95;45.32;95366.78;5008843;28;20049;-65
2022/09/07 04:34:55;;;;;;;3.33;2.70;;;;;;;24.45;44.99;95430.03;5021471;28;20530;-69
2022/09/07 04:37:20;;;;;;;4.18;2.78;;;;;;;24.32;45.11;95426.34;4986211;28;20041;-64
2022/09/07 04:39:46;;;;;;;4.35;2.90;;;;;;;24.31;45.08;95413.97;4998196;28;20648;-68
2022/09/07 04:42:11;;;;;;;5.03;3.20;;;;;;;24.39;45.18;95432.03;4990489;28;20049;-68
2022/09/07 04:44:37;;;;;;;4.28;2.90;;;;;;;23.77;45.35;95333.16;5004237;28;20053;-68
2022/09/07 04:47:02;;;;;;;4.93;2.97;;;;;;;24.42;45.09;95444.69;5004661;28;20038;-66
2022/09/07 04:49:28;;;;;;;4.30;2.80;;;;;;;24.32;45.03;95429.06;4997571;28;20062;-67
2022/09/07 04:51:53;;;;;;;4.38;2.92;;;;;;;23.88;45.32;95359.16;4995780;28;20026;-66
2022/09/07 04:54:19;;;;;;;4.88;2.85;;;;;;;24.33;45.16;95431.34;5004272;28;20033;-62
2022/09/07 04:56:44;;;;;;;4.22;3.10;;;;;;;24.41;45.32;95441.22;5004879;28;20533;-64
2022/09/07 04:59:10;;;;;;;5.40;3.50;;;;;;;23.92;45.41;95373.25;4993665;28;20034;-66
2022/09/07 05:01:35;;;;;;;5.10;3.22;;;;;;;24.01;45.17;95386.59;5001473;28;20037;-67
2022/09/07 05:04:02;;;;;;;5.05;3.42;;;;;;;24.34;45.38;95441.75;5014923;28;20379;-69
2022/09/07 05:06:27;;;;;;;4.32;3.20;;;;;;;24.04;45.22;95391.03;4991370;28;20042;-68
2022/09/07 05:08:53;;;;;;;4.70;3.25;;;;;;;24.14;45.24;95416.78;5004294;28;20119;-63
2022/09/07 05:11:19;;;;;;;6.43;3.88;;;;;;;24.33;45.61;95439.53;4994530;28;20033;-64
2022/09/07 05:13:45;;;;;;;5.38;3.15;;;;;;;24.14;45.36;95405.88;4993091;28;20034;-66
2022/09/07 05:16:15;;;;;;;4.85;3.88;;;;;;;23.59;44.86;95317.38;4973010;28;20026;-65
2022/09/07 05:18:41;;;;;;;5.05;3.47;;;;;;;24.46;45.47;95447.88;5007691;28;20025;-70
2022/09/07 05:21:17;;;;;;;5.82;3.55;;;;;;;24.19;44.99;95407.81;5020527;28;20048;-65
2022/09/07 05:23:43;;;;;;;5.85;3.53;;;;;;;24.39;45.24;95443.72;4968081;28;20525;-67
2022/09/07 05:26:08;;;;;;;6.53;3.50;;;;;;;24.46;45.44;95456.09;4996659;28;20038;-67
2022/09/07 05:28:34;;;;;;;5.68;3.45;;;;;;;24.26;45.57;95433.81;5004500;28;20034;-70
2022/09/07 05:31:07;;;;;;;6.95;3.47;;;;;;;23.93;44.89;95369.28;5013198;28;20391;-67
2022/09/07 05:33:34;;;;;;;7.30;3.80;;;;;;;24.48;45.39;95445.38;5014719;28;20078;-66
2022/09/07 05:36:00;;;;;;;5.25;3.15;;;;;;;24.35;45.22;95420.66;5001794;28;20045;-64
2022/09/07 05:38:26;;;;;;;5.10;3.40;;;;;;;23.66;45.18;95322.31;4999845;28;20034;-72
2022/09/07 05:40:51;;;;;;;5.43;3.30;;;;;;;24.30;45.34;95415.94;4996274;28;20062;-66
2022/09/07 05:43:17;;;;;;;5.95;3.22;;;;;;;24.49;45.63;95442.16;4998958;28;20500;-62
2022/09/07 05:45:42;;;;;;;4.82;3.15;;;;;;;24.39;44.98;95430.06;5010241;28;20113;-62
2022/09/07 05:48:08;;;;;;;7.15;3.15;;;;;;;24.17;44.83;95388.50;4983704;28;20062;-62
2022/09/07 05:50:34;;;;;;;4.25;2.60;;;;;;;23.77;44.39;95322.25;4985397;28;20116;-68
2022/09/07 05:53:00;;;;;;;6.70;3.08;;;;;;;24.56;44.33;95435.44;5003818;28;20041;-65
2022/09/07 05:55:26;;;;;;;6.15;3.20;;;;;;;24.39;44.45;95410.19;5003499;28;20026;-62
2022/09/07 05:57:52;;;;;;;4.50;2.85;;;;;;;24.63;44.29;95432.13;5009395;28;20042;-61
2022/09/07 06:00:20;;;;;;;4.75;3.13;;;;;;;24.61;44.59;95434.63;5006467;28;20127;-62
2022/09/07 06:02:48;;;;;;;3.63;2.75;;;;;;;24.29;44.26;95384.44;5006619;28;20052;-63
2022/09/07 06:05:13;;;;;;;3.67;2.78;;;;;;;24.62;44.37;95441.56;4991877;28;20038;-61
2022/09/07 06:07:39;;;;;;;5.18;2.97;;;;;;;24.04;44.15;95347.38;5012063;28;20122;-64
2022/09/07 06:10:06;;;;;;;3.95;2.45;;;;;;;24.62;44.08;95444.28;5013916;28;20069;-66
2022/09/07 06:12:31;;;;;;;4.70;2.70;;;;;;;23.95;43.88;95334.03;5006682;28;20073;-62
2022/09/07 06:14:57;;;;;;;4.63;2.78;;;;;;;24.71;43.86;95446.72;5006658;28;20050;-62
2022/09/07 06:17:22;;;;;;;4.20;2.40;;;;;;;24.00;43.87;95349.63;5006704;28;20560;-61
2022/09/07 06:19:48;;;;;;;6.25;2.88;;;;;;;23.94;43.77;95332.53;5006795;28;20030;-69
2022/09/07 06:22:13;;;;;;;4.10;2.50;;;;;;;24.67;44.02;95429.88;5008321;28;20057;-62
2022/09/07 06:24:39;;;;;;;3.97;2.45;;;;;;;24.51;43.61;95406.16;4996369;28;20430;-68
2022/09/07 06:27:04;;;;;;;4.53;2.47;;;;;;;24.38;43.46;95387.63;5000854;28;20135;-65
2022/09/07 06:29:30;;;;;;;4.22;2.47;;;;;;;24.63;43.86;95423.94;5004637;28;20268;-69
2022/09/07 06:31:55;;;;;;;2.95;2.20;;;;;;;24.52;43.40;95413.09;5006854;28;20605;-68
2022/09/07 06:34:21;;;;;;;3.50;2.35;;;;;;;24.47;43.56;95406.44;5006596;28;20494;-69
2022/09/07 06:36:47;;;;;;;4.28;2.22;;;;;;;24.72;43.41;95437.28;5006958;28;20057;-65
2022/09/07 06:39:12;;;;;;;3.08;2.10;;;;;;;24.81;43.52;95450.63;4999503;28;20053;-65
2022/09/07 06:41:38;;;;;;;3.55;2.10;;;;;;;24.72;43.34;95431.81;5003360;28;20049;-63
2022/09/07 06:44:03;;;;;;;4.22;2.00;;;;;;;24.47;43.75;95400.25;5006292;28;20504;-64
2022/09/07 06:46:29;;;;;;;5.90;2.50;;;;;;;24.26;43.27;95369.09;5006194;28;20042;-62
2022/09/07 06:48:54;;;;;;;4.78;2.20;;;;;;;24.49;43.66;95401.19;5009237;28;20037;-64
2022/09/07 06:51:25;;;;;;;5.57;3.10;;;;;;;24.59;43.47;95412.56;4996584;28;20034;-61
2022/09/07 06:53:50;;;;;;;4.35;2.60;;;;;;;24.86;43.34;95458.78;4989442;28;20039;-62
2022/09/07 06:56:16;;;;;;;4.82;2.47;;;;;;;24.13;42.92;95349.81;4994806;28;20037;-64
2022/09/07 06:58:42;;;;;;;4.50;2.20;;;;;;;24.85;43.31;95468.97;4985686;28;20095;-64
2022/09/07 07:01:09;;;;;;;4.82;2.50;;;;;;;24.91;42.99;95460.72;5011606;28;20116;-62
2022/09/07 07:03:35;;;;;;;4.65;2.97;;;;;;;24.88;43.74;95462.47;4977830;28;20046;-61
2022/09/07 07:06:01;;;;;;;3.92;2.13;;;;;;;24.91;43.52;95469.66;5005266;28;20049;-64
2022/09/07 07:08:26;;;;;;;4.07;2.47;;;;;;;24.85;43.75;95452.56;5006500;28;20038;-63
2022/09/07 07:10:52;;;;;;;4.13;2.33;;;;;;;24.74;42.84;95441.00;5011925;28;20529;-67
2022/09/07 07:13:18;;;;;;;2.97;2.10;;;;;;;24.96;42.92;95466.16;5001252;28;20033;-70
2022/09/07 07:15:43;;;;;;;4.40;2.15;;;;;;;24.91;43.02;95456.00;4998934;28;20022;-69
2022/09/07 07:18:10;;;;;;;4.75;2.45;;;;;;;24.93;43.20;95452.75;5002922;28;20550;-63
2022/09/07 07:20:36;;;;;;;5.38;2.10;;;;;;;24.47;43.01;95383.84;4985636;28;20414;-70
2022/09/07 07:23:02;;;;;;;2.78;2.10;;;;;;;24.43;43.07;95377.91;5003293;28;20076;-64
2022/09/07 07:25:27;;;;;;;4.47;2.20;;;;;;;24.98;43.06;95466.38;4989784;28;20034;-71
2022/09/07 07:27:53;;;;;;;3.63;2.40;;;;;;;25.01;43.07;95462.66;5007498;28;20056;-69
2022/09/07 07:30:19;;;;;;;2.83;2.20;;;;;;;24.88;43.09;95435.16;5006478;28;20815;-68
2022/09/07 07:32:44;;;;;;;3.95;2.42;;;;;;;24.99;42.81;95451.50;5005946;28;20038;-69
2022/09/07 07:35:10;;;;;;;4.03;2.20;;;;;;;24.89;43.02;95439.38;5003262;28;20042;-66
2022/09/07 07:37:36;;;;;;;3.30;2.00;;;;;;;25.07;42.73;95463.38;4975223;28;20076;-70
2022/09/07 07:40:05;;;;;;;4.45;2.15;;;;;;;25.07;43.08;95465.38;4998012;28;20073;-70
2022/09/07 07:42:31;;;;;;;3.30;2.22;;;;;;;24.99;42.84;95456.97;5007006;28;20042;-63
2022/09/07 07:44:57;;;;;;;5.75;2.15;;;;;;;25.02;43.03;95466.91;5009713;28;20046;-63
2022/09/07 07:47:22;;;;;;;2.60;1.88;;;;;;;24.41;42.91;95364.78;5006360;28;20502;-67
2022/09/07 07:49:48;;;;;;;4.30;2.00;;;;;;;24.92;42.88;95435.63;5013026;28;20045;-64
2022/09/07 07:52:15;;;;;;;3.60;2.10;;;;;;;24.86;42.80;95426.75;5005148;28;20025;-65
2022/09/07 07:54:41;;;;;;;4.50;2.33;;;;;;;24.66;42.80;95390.16;5010505;28;20588;-66
2022/09/07 07:57:06;;;;;;;3.53;2.10;;;;;;;24.90;42.81;95431.91;4993783;28;20068;-63
2022/09/07 07:59:32;;;;;;;3.15;2.00;;;;;;;25.14;42.61;95473.75;4986398;28;20191;-63
2022/09/07 08:02:03;;;;;;;3.38;1.92;;;;;;;25.16;43.17;95471.25;4995017;28;20030;-65
2022/09/07 08:04:29;;;;;;;3.75;2.08;;;;;;;25.05;42.82;95441.28;4992282;28;20132;-69
2022/09/07 08:06:55;;;;;;;5.28;2.10;;;;;;;25.22;42.98;95469.19;5005742;28;20026;-64
2022/09/07 08:09:21;;;;;;;3.90;2.28;;;;;;;25.18;42.80;95463.25;5008982;28;20536;-65
2022/09/07 08:11:47;;;;;;;4.35;2.30;;;;;;;25.15;42.82;95447.88;5004872;28;20587;-65
2022/09/07 08:14:12;;;;;;;3.75;2.20;;;;;;;25.08;42.86;95437.53;5005025;28;20457;-64
2022/09/07 08:16:38;;;;;;;4.05;2.00;;;;;;;25.23;43.08;95459.75;4991298;28;20050;-66
2022/09/07 08:19:04;;;;;;;3.47;2.00;;;;;;;24.99;42.91;95418.72;4997243;28;20018;-69
2022/09/07 08:21:30;;;;;;;2.72;2.03;;;;;;;25.28;42.72;95461.69;4987314;28;20049;-63
2022/09/07 08:23:58;;;;;;;3.78;2.20;;;;;;;25.05;42.99;95418.66;4987636;28;20068;-64
2022/09/07 08:26:24;;;;;;;3.72;2.10;;;;;;;24.81;42.48;95379.59;5011343;28;20042;-63
2022/09/07 08:28:50;;;;;;;4.03;2.30;;;;;;;25.31;43.25;95460.69;4996775;28;20057;-64
2022/09/07 08:31:15;;;;;;;4.57;2.30;;;;;;;25.23;42.94;95459.75;5008987;28;20072;-63
2022/09/07 08:33:41;;;;;;;3.22;2.15;;;;;;;24.60;42.85;95348.50;4984347;28;20581;-62
2022/09/07 08:36:09;;;;;;;3.33;2.05;;;;;;;24.88;42.96;95385.97;5002333;28;20053;-66
2022/09/07 08:38:35;;;;;;;3.10;2.20;;;;;;;25.34;43.02;95448.72;5016513;28;20112;-64
2022/09/07 08:41:01;;;;;;;3.45;2.25;;;;;;;25.33;43.33;95442.50;4986617;28;20113;-66
2022/09/07 08:43:57;;;;;;;3.33;2.00;;;;;;;25.36;42.98;95440.72;4998425;28;20045;-65
2022/09/07 08:46:22;;;;;;;3.17;2.17;;;;;;;25.38;42.97;95432.75;4996294;28;20068;-63
2022/09/07 08:48:48;;;;;;;4.05;2.38;;;;;;;24.83;43.32;95356.00;5010326;28;20478;-69
2022/09/07 08:51:17;;;;;;;4.88;2.33;;;;;;;24.76;42.84;95344.88;5008279;28;20083;-65
2022/09/07 08:53:45;;;;;;;3.10;2.13;;;;;;;25.35;42.92;95417.38;4996040;28;20525;-65
2022/09/07 08:56:39;;;;;;;4.07;2.20;;;;;;;25.37;42.67;95421.09;4987827;28;20542;-66
2022/09/07 08:59:38;;;;;;;3.58;2.30;;;;;;;25.49;43.08;95427.19;5001670;28;20040;-67
2022/09/07 09:02:09;;;;;;;3.92;2.08;;;;;;;25.51;42.95;95419.94;4990277;28;20457;-63
2022/09/07 09:04:34;;;;;;;4.05;2.40;;;;;;;24.98;43.14;95335.22;4971074;28;20029;-63
2022/09/07 09:07:13;;;;;;;3.63;2.38;;;;;;;25.56;43.06;95416.41;5005064;28;20033;-66
2022/09/07 09:09:57;;;;;;;4.95;2.55;;;;;;;25.58;43.04;95413.16;5004308;28;20041;-65
2022/09/07 09:12:36;;;;;;;4.80;3.17;;;;;;;25.26;43.21;95360.31;5004067;28;20033;-66
2022/09/07 09:15:25;;;;;;;3.65;2.20;;;;;;;25.34;42.83;95372.16;4987567;28;20025;-62
2022/09/07 09:17:59;;;;;;;3.75;2.33;;;;;;;25.63;42.89;95402.16;4970156;28;20062;-65
2022/09/07 09:20:31;;;;;;;2.88;1.98;;;;;;;25.68;43.15;95401.41;4990968;28;20530;-68
2022/09/07 09:23:01;;;;;;;3.30;2.30;;;;;;;25.62;42.91;95397.19;5007136;28;20124;-64
2022/09/07 09:25:32;;;;;;;4.53;2.58;;;;;;;25.60;42.93;95405.91;4990545;28;20041;-67
2022/09/07 09:27:59;;;;;;;3.90;2.20;;;;;;;25.74;43.11;95428.66;5004765;28;20089;-66
2022/09/07 09:30:27;;;;;;;3.72;2.25;;;;;;;25.71;42.77;95394.13;5006195;28;20061;-63
2022/09/07 09:33:11;;;;;;;3.58;2.20;;;;;;;25.00;42.28;95282.81;5008070;28;20046;-64
2022/09/07 09:35:37;;;;;;;3.22;2.35;;;;;;;25.42;42.50;95337.50;5011130;28;20050;-62
2022/09/07 09:38:03;;;;;;;6.03;2.63;;;;;;;25.17;42.12;95306.00;5004578;28;20041;-68
2022/09/07 09:40:32;;;;;;;3.00;2.40;;;;;;;25.01;42.56;95271.38;4974272;28;20451;-66
2022/09/07 09:43:18;;;;;;;4.13;2.30;;;;;;;25.86;42.52;95395.94;4964789;28;20027;-65
2022/09/07 09:45:45;;;;;;;3.88;2.38;;;;;;;25.65;42.51;95347.72;4977162;28;20037;-64
2022/09/07 09:48:35;;;;;;;3.95;2.60;;;;;;;25.90;42.24;95393.66;4985342;28;20076;-62
2022/09/07 09:51:01;;;;;;;;;;;;;;;25.89;42.78;95389.44;5007722;28;20073;-63
2022/09/07 09:53:39;;;;;;;4.10;2.25;;;;;;;25.91;42.14;95392.38;4977222;28;20374;-62
2022/09/07 09:56:05;;;;;;;4.70;2.40;;;;;;;25.92;41.94;95382.94;5000630;28;20567;-63
2022/09/07 09:58:36;;;;;;;5.05;2.40;;;;;;;25.86;41.97;95379.53;4976726;28;20045;-64
2022/09/07 10:01:06;;;;;;;6.63;2.70;;;;;;;25.49;41.96;95306.88;4992548;28;20026;-61
2022/09/07 10:03:33;;;;;;;5.03;2.50;;;;;;;25.74;42.30;95343.84;4987645;28;20061;-61
2022/09/07 10:06:03;;;;;;;4.32;2.58;;;;;;;25.74;42.44;95330.19;5002768;28;20506;-62
2022/09/07 10:08:30;;;;;;;5.22;2.50;;;;;;;25.97;42.72;95354.75;4980304;28;20038;-65
2022/09/07 10:10:56;;;;;;;3.78;2.60;;;;;;;26.08;42.45;95373.75;5005561;28;20038;-62
2022/09/07 10:13:25;;;;;;;3.47;2.40;;;;;;;25.51;42.86;95277.00;4993825;28;20145;-65
2022/09/07 10:15:52;;;;;;;3.72;2.58;;;;;;;25.93;42.88;95329.69;4993809;28;20025;-63
2022/09/07 10:18:21;;;;;;;3.35;2.58;;;;;;;26.09;42.47;95353.34;4976006;28;20045;-62
2022/09/07 10:20:47;;;;;;;4.27;2.37;;;;;;;25.60;43.17;95290.31;5006882;28;20070;-64
2022/09/07 10:23:22;;;;;;;2.90;2.40;;;;;;;25.69;43.40;95303.66;5007618;28;20092;-68
2022/09/07 10:25:48;;;;;;;4.20;2.60;;;;;;;25.75;43.53;95315.25;5001577;28;20454;-67
2022/09/07 10:28:21;;;;;;;3.50;2.40;;;;;;;25.91;43.76;95326.72;5012664;28;20018;-68
2022/09/07 10:30:58;;;;;;;3.75;2.33;;;;;;;26.07;43.77;95342.16;5006899;28;20034;-66
2022/09/07 10:33:43;;;;;;;3.65;2.45;;;;;;;25.42;43.48;95244.53;5001592;28;20081;-69
2022/09/07 10:36:17;;;;;;;3.72;2.22;;;;;;;26.11;43.73;95331.66;4998902;28;20081;-65
2022/09/07 10:39:09;;;;;;;3.78;2.47;;;;;;;26.11;43.80;95331.66;5012756;28;21345;-70
2022/09/07 10:42:01;;;;;;;3.92;2.53;;;;;;;26.15;43.12;95334.81;4963548;28;20042;-65
2022/09/07 10:44:40;;;;;;;3.70;2.30;;;;;;;25.80;43.55;95277.63;4977156;28;20092;-65
2022/09/07 10:47:28;;;;;;;3.83;2.70;;;;;;;26.04;43.54;95310.38;4991761;28;20045;-65
2022/09/07 10:50:07;;;;;;;4.25;2.72;;;;;;;26.21;43.77;95332.03;4984740;28;20515;-69
2022/09/07 10:52:48;;;;;;;4.97;3.00;;;;;;;26.22;43.64;95328.75;4980204;28;20709;-69
2022/09/07 10:55:25;;;;;;;4.82;2.75;;;;;;;26.24;43.52;95320.03;4975393;28;20121;-70
2022/09/07 10:58:15;;;;;;;4.13;2.70;;;;;;;26.26;43.63;95323.72;4991522;28;20097;-70
2022/09/07 11:01:15;;;;;;;3.72;2.90;;;;;;;25.47;43.29;95194.50;5006715;28;20038;-64
2022/09/07 11:03:55;;;;;;;3.63;2.60;;;;;;;26.22;43.51;95295.91;4997871;28;20050;-67
2022/09/07 11:06:24;;;;;;;3.90;2.70;;;;;;;26.24;43.20;95309.06;5006904;28;20034;-67
2022/09/07 11:09:01;;;;;;;3.43;2.73;;;;;;;26.34;43.52;95308.94;4986865;28;20045;-65
2022/09/07 11:11:29;;;;;;;3.30;2.78;;;;;;;26.34;43.55;95308.19;4991671;28;20046;-68
2022/09/07 11:13:57;;;;;;;4.32;2.85;;;;;;;26.36;43.39;95300.19;4984065;28;20073;-64
2022/09/07 11:16:24;;;;;;;3.13;2.60;;;;;;;26.30;43.34;95302.28;4989869;28;20034;-65
2022/09/07 11:19:00;;;;;;;3.40;2.70;;;;;;;25.79;43.03;95209.00;4971299;28;20048;-69
2022/09/07 11:21:32;;;;;;;4.13;2.80;;;;;;;25.81;43.37;95216.16;4998891;28;20046;-66
2022/09/07 11:24:14;;;;;;;3.88;2.80;;;;;;;26.31;43.58;95277.13;4969494;28;20129;-67
2022/09/07 11:26:49;;;;;;;4.68;2.90;;;;;;;26.05;43.34;95243.41;4968807;28;20030;-68
2022/09/07 11:29:24;;;;;;;5.10;2.60;;;;;;;26.44;43.63;95281.88;4972545;28;20049;-65
2022/09/07 11:31:52;;;;;;;3.58;2.63;;;;;;;25.92;43.66;95209.78;4999105;28;20538;-63
2022/09/07 11:34:28;;;;;;;4.28;2.75;;;;;;;25.74;43.12;95171.50;4986010;28;20122;-64
2022/09/07 11:37:16;;;;;;;4.22;2.85;;;;;;;25.91;43.62;95195.34;4979697;28;20044;-69
2022/09/07 11:40:06;;;;;;;3.95;2.95;;;;;;;26.48;43.63;95280.31;5005825;28;20049;-64
2022/09/07 11:42:36;;;;;;;3.92;2.80;;;;;;;26.49;43.63;95275.59;5005555;28;20041;-66
2022/09/07 11:45:11;;;;;;;4.47;2.97;;;;;;;26.51;43.45;95278.53;5000488;28;20128;-66
2022/09/07 11:47:58;;;;;;;3.63;2.88;;;;;;;26.22;43.63;95235.69;4993356;28;20049;-67